Time;durP1;ratioP1;P1;durP2;ratioP2;P2;SDS_P1;SDS_P2;PMS_P1;PMS_P2;Temp;Humidity;BMP_temperature;BMP_pressure;BME280_temperature;BME280_humidity;BME280_pressure;Samples;Min_cycle;Max_cycle;Signal;HPM_P1;HPM_P2
2022/06/27 00:01:27;;;;;;;19.85;10.75;;;18.90;99.90;;;;;;5074654;28;20052;-70
2022/06/27 00:03:53;;;;;;;17.10;10.15;;;19.20;99.90;;;;;;5074513;28;20040;-70
2022/06/27 00:06:19;;;;;;;20.25;11.15;;;19.50;99.90;;;;;;5074632;28;20050;-70
2022/06/27 00:08:47;;;;;;;17.42;10.65;;;18.60;99.00;;;;;;5074497;28;20240;-70
2022/06/27 00:11:13;;;;;;;18.80;9.88;;;18.40;99.40;;;;;;5074422;28;20041;-70
2022/06/27 00:13:38;;;;;;;17.88;10.75;;;17.80;99.90;;;;;;5057101;28;20055;-69
2022/06/27 00:16:05;;;;;;;19.33;11.05;;;;;;;;;;5074183;28;20131;-69
2022/06/27 00:18:31;;;;;;;18.52;10.43;;;;;;;;;;5075537;28;20106;-70
2022/06/27 00:20:57;;;;;;;21.73;10.65;;;;;;;;;;5074165;28;20045;-70
2022/06/27 00:23:23;;;;;;;19.73;11.23;;;;;;;;;;5057438;28;20124;-70
2022/06/27 00:25:48;;;;;;;17.30;10.73;;;18.10;99.90;;;;;;5074318;28;20044;-70
2022/06/27 00:28:14;;;;;;;19.60;10.52;;;;;;;;;;5075418;28;20480;-70
2022/06/27 00:30:40;;;;;;;16.77;10.25;;;17.80;99.90;;;;;;5074082;28;20044;-70
2022/06/27 00:33:06;;;;;;;23.23;11.23;;;18.40;99.60;;;;;;5073924;28;20052;-70
2022/06/27 00:35:32;;;;;;;18.65;10.35;;;18.20;99.50;;;;;;5074259;28;20040;-70
2022/06/27 00:37:58;;;;;;;18.10;11.40;;;19.00;99.90;;;;;;5074037;28;20530;-70
2022/06/27 00:40:24;;;;;;;18.85;10.57;;;;;;;;;;5073888;28;20477;-70
2022/06/27 00:42:49;;;;;;;20.13;10.30;;;18.60;98.60;;;;;;5057504;28;20060;-70
2022/06/27 00:45:15;;;;;;;26.60;11.23;;;17.50;99.90;;;;;;5074064;28;20465;-70
2022/06/27 00:47:41;;;;;;;18.35;10.25;;;19.10;99.90;;;;;;5074856;28;20040;-70
2022/06/27 00:50:07;;;;;;;17.35;9.27;;;17.60;99.90;;;;;;5073597;28;20040;-70
2022/06/27 00:52:34;;;;;;;18.95;10.25;;;;;;;;;;5073458;28;20033;-70
2022/06/27 00:54:59;;;;;;;19.52;11.27;;;18.30;98.80;;;;;;5073715;28;20396;-70
2022/06/27 00:57:28;;;;;;;18.50;9.88;;;18.20;99.90;;;;;;5073313;28;20165;-70
2022/06/27 00:59:54;;;;;;;19.00;10.77;;;18.10;99.90;;;;;;5073766;28;20111;-70
2022/06/27 01:02:20;;;;;;;18.15;10.10;;;17.10;99.90;;;;;;5073392;28;20493;-70
2022/06/27 01:04:46;;;;;;;19.80;10.18;;;18.40;99.90;;;;;;5073443;28;20079;-70
2022/06/27 01:07:12;;;;;;;21.63;9.95;;;19.00;99.90;;;;;;5074715;28;20032;-70
2022/06/27 01:09:38;;;;;;;20.63;10.48;;;;;;;;;;5073229;28;20501;-70
2022/06/27 01:12:05;;;;;;;19.60;9.80;;;18.50;99.90;;;;;;5073252;28;20040;-70
2022/06/27 01:14:30;;;;;;;14.95;9.27;;;18.80;99.90;;;;;;5073373;28;20056;-70
2022/06/27 01:16:57;;;;;;;17.85;9.27;;;;;;;;;;5073295;28;20388;-70
2022/06/27 01:19:23;;;;;;;21.40;9.90;;;17.40;99.90;;;;;;5074454;28;20062;-70
2022/06/27 01:21:54;;;;;;;19.77;10.35;;;19.40;99.90;;;;;;5073288;28;20036;-70
2022/06/27 01:24:21;;;;;;;21.52;11.48;;;18.20;99.90;;;;;;5073353;28;20128;-70
2022/06/27 01:26:48;;;;;;;22.65;10.70;;;17.10;99.90;;;;;;5072923;28;20040;-70
2022/06/27 01:29:14;;;;;;;17.92;11.18;;;18.10;99.90;;;;;;5073142;28;20043;-69
2022/06/27 01:31:41;;;;;;;18.23;11.88;;;;;;;;;;5072947;28;20044;-70
2022/06/27 01:34:07;;;;;;;16.15;11.18;;;19.00;99.90;;;;;;5073306;28;20094;-69
2022/06/27 01:36:42;;;;;;;18.92;11.30;;;;;;;;;;5056847;28;20036;-69
2022/06/27 01:39:18;;;;;;;21.17;11.90;;;18.30;99.90;;;;;;5072722;28;20036;-70
2022/06/27 01:41:50;;;;;;;20.90;12.45;;;17.10;99.90;;;;;;5072691;28;20048;-70
2022/06/27 01:44:18;;;;;;;30.55;13.13;;;18.20;99.90;;;;;;5072641;28;20076;-70
2022/06/27 01:46:44;;;;;;;23.02;12.48;;;18.10;99.90;;;;;;5073847;28;20528;-70
2022/06/27 01:49:13;;;;;;;22.60;11.48;;;18.20;99.90;;;;;;5072540;28;20036;-70
2022/06/27 01:51:39;;;;;;;18.75;10.60;;;18.30;99.90;;;;;;5072479;28;20101;-70
2022/06/27 01:54:08;;;;;;;27.50;12.48;;;18.20;99.90;;;;;;5072538;28;20045;-70
2022/06/27 01:56:34;;;;;;;20.55;11.77;;;18.10;99.90;;;;;;5072348;28;20114;-70
2022/06/27 01:59:00;;;;;;;15.55;10.48;;;18.20;99.90;;;;;;5055627;28;20045;-70
2022/06/27 02:01:27;;;;;;;23.55;12.38;;;18.10;99.90;;;;;;5073136;28;20098;-70
2022/06/27 02:03:55;;;;;;;19.20;11.93;;;18.00;99.90;;;;;;5072406;28;20075;-70
2022/06/27 02:06:21;;;;;;;19.13;10.48;;;18.80;99.90;;;;;;5072354;28;20072;-70
2022/06/27 02:08:52;;;;;;;19.98;11.25;;;16.90;99.90;;;;;;5073511;28;20041;-70
2022/06/27 02:11:18;;;;;;;23.55;11.20;;;;;;;;;;5072216;28;20048;-70
2022/06/27 02:13:44;;;;;;;22.75;12.60;;;18.10;99.90;;;;;;5072211;28;20044;-70
2022/06/27 02:16:14;;;;;;;20.10;11.90;;;17.20;99.90;;;;;;5072256;28;20123;-70
2022/06/27 02:18:42;;;;;;;22.25;12.93;;;18.00;99.90;;;;;;5072158;28;20123;-70
2022/06/27 02:21:10;;;;;;;20.10;11.35;;;18.10;99.90;;;;;;5072355;28;20036;-70
2022/06/27 02:23:36;;;;;;;16.92;11.55;;;;;;;;;;5072237;28;20043;-70
2022/06/27 02:26:03;;;;;;;23.70;11.65;;;17.30;99.90;;;;;;5072096;28;20037;-70
2022/06/27 02:28:29;;;;;;;18.10;11.77;;;18.10;99.90;;;;;;5072002;28;20053;-70
2022/06/27 02:30:56;;;;;;;25.08;12.00;;;18.90;99.90;;;;;;5072152;28;20051;-70
2022/06/27 02:33:22;;;;;;;23.15;12.52;;;;;;;;;;5072171;28;20052;-70
2022/06/27 02:35:50;;;;;;;21.65;11.43;;;18.00;99.90;;;;;;5055393;28;20052;-70
2022/06/27 02:38:17;;;;;;;18.65;10.73;;;17.70;99.90;;;;;;5057342;28;20075;-70
2022/06/27 02:40:43;;;;;;;24.17;12.35;;;;;;;;;;5059468;28;20040;-70
2022/06/27 02:43:12;;;;;;;25.65;13.27;;;17.80;99.90;;;;;;5059470;28;20125;-70
2022/06/27 02:45:39;;;;;;;24.02;12.73;;;17.90;99.90;;;;;;5075914;28;20037;-70
2022/06/27 02:48:07;;;;;;;24.13;13.25;;;18.90;99.90;;;;;;5076087;28;20055;-70
2022/06/27 02:50:37;;;;;;;23.35;12.77;;;18.10;99.90;;;;;;5076250;28;20396;-70
2022/06/27 02:53:09;;;;;;;24.13;12.70;;;17.90;99.90;;;;;;5075846;28;20101;-70
2022/06/27 02:55:39;;;;;;;22.88;12.13;;;18.80;99.90;;;;;;5075606;28;20083;-70
2022/06/27 02:58:34;;;;;;;20.52;11.85;;;18.70;99.90;;;;;;5075625;28;20052;-70
2022/06/27 03:01:02;;;;;;;22.50;11.55;;;17.90;99.90;;;;;;5074348;28;20102;-70
2022/06/27 03:03:32;;;;;;;20.70;11.65;;;17.90;99.90;;;;;;5075640;28;20488;-70
2022/06/27 03:06:04;;;;;;;23.58;12.07;;;18.70;99.90;;;;;;5075758;28;20040;-70
2022/06/27 03:08:46;;;;;;;15.77;10.68;;;18.30;99.90;;;;;;5075639;28;20047;-70
2022/06/27 03:11:15;;;;;;;22.98;11.77;;;16.80;99.90;;;;;;5075832;28;20382;-70
2022/06/27 03:13:41;;;;;;;20.67;12.40;;;;;;;;;;5075482;28;20045;-70
2022/06/27 03:16:08;;;;;;;20.58;11.70;;;17.80;99.90;;;;;;5075397;28;20072;-70
2022/06/27 03:18:34;;;;;;;22.55;11.77;;;;;;;;;;5075409;28;20044;-70
2022/06/27 03:21:00;;;;;;;21.02;10.25;;;18.20;99.90;;;;;;5076726;28;20154;-70
2022/06/27 03:23:27;;;;;;;17.42;11.55;;;18.60;99.90;;;;;;5076509;28;20075;-70
2022/06/27 03:25:53;;;;;;;22.27;11.40;;;18.80;99.90;;;;;;5075285;28;20052;-70
2022/06/27 03:28:19;;;;;;;22.33;12.10;;;;;;;;;;5058761;28;20041;-70
2022/06/27 03:30:45;;;;;;;19.77;11.57;;;18.60;99.90;;;;;;5075093;28;20097;-70
2022/06/27 03:33:11;;;;;;;25.40;11.70;;;;;;;;;;5076342;28;20051;-70
2022/06/27 03:35:37;;;;;;;23.73;11.35;;;;;;;;;;5075057;28;20453;-70
2022/06/27 03:38:03;;;;;;;21.45;10.60;;;18.70;99.90;;;;;;5074800;28;20051;-70
2022/06/27 03:40:29;;;;;;;20.75;10.88;;;17.80;99.90;;;;;;5075204;28;20040;-70
2022/06/27 03:42:55;;;;;;;18.20;11.15;;;;;;;;;;5058450;28;20434;-70
2022/06/27 03:45:20;;;;;;;22.20;10.50;;;18.30;99.90;;;;;;5075058;28;20039;-70
2022/06/27 03:47:51;;;;;;;22.73;10.73;;;17.60;99.90;;;;;;5075104;28;20396;-70
2022/06/27 03:50:18;;;;;;;16.77;10.25;;;17.50;99.90;;;;;;5074645;28;20044;-70
2022/06/27 03:52:44;;;;;;;20.65;10.80;;;17.80;99.90;;;;;;5074898;28;20040;-70
2022/06/27 03:55:11;;;;;;;14.65;9.70;;;17.70;99.90;;;;;;5074998;28;20047;-70
2022/06/27 03:57:38;;;;;;;18.20;9.98;;;18.40;99.90;;;;;;5057864;28;20403;-70
2022/06/27 04:00:10;;;;;;;24.40;9.63;;;16.90;99.90;;;;;;5074597;28;20429;-70
2022/06/27 04:02:36;;;;;;;23.00;11.05;;;;;;;;;;5074791;28;20048;-70
2022/06/27 04:05:03;;;;;;;19.98;10.82;;;17.40;99.90;;;;;;5074502;28;20037;-70
2022/06/27 04:07:29;;;;;;;19.58;10.88;;;17.30;99.90;;;;;;5058067;28;20374;-70
2022/06/27 04:09:56;;;;;;;18.83;10.30;;;17.90;99.90;;;;;;5057869;28;20098;-70
2022/06/27 04:12:22;;;;;;;19.08;10.10;;;18.40;99.90;;;;;;5057893;28;20487;-70
2022/06/27 04:14:48;;;;;;;16.10;9.88;;;;;;;;;;5074306;28;20036;-70
2022/06/27 04:17:13;;;;;;;19.05;11.07;;;17.70;99.90;;;;;;5074292;28;20559;-70
2022/06/27 04:19:40;;;;;;;20.25;13.13;;;;;;;;;;5074230;28;20127;-70
2022/06/27 04:22:08;;;;;;;27.40;13.68;;;;;;;;;;5074249;28;20045;-70
2022/06/27 04:24:35;;;;;;;24.42;14.75;;;18.20;99.90;;;;;;5074154;28;20124;-70
2022/06/27 04:27:01;;;;;;;24.25;13.43;;;;;;;;;;5074166;28;20469;-70
2022/06/27 04:29:27;;;;;;;20.27;12.07;;;17.10;99.90;;;;;;5074061;28;20041;-70
2022/06/27 04:31:53;;;;;;;22.17;13.93;;;17.50;99.90;;;;;;5075603;28;20034;-70
2022/06/27 04:34:19;;;;;;;22.02;12.02;;;17.70;99.90;;;;;;5075488;28;20495;-70
2022/06/27 04:36:45;;;;;;;24.92;14.13;;;;;;;;;;5057120;28;20044;-70
2022/06/27 04:39:17;;;;;;;23.20;13.70;;;;;;;;;;5073732;28;20044;-70
2022/06/27 04:41:49;;;;;;;24.95;14.50;;;17.80;99.90;;;;;;5074172;28;20055;-70
2022/06/27 04:44:15;;;;;;;23.10;12.45;;;;;;;;;;5073899;28;20485;-70
2022/06/27 04:46:41;;;;;;;19.70;12.15;;;;;;;;;;5073772;28;20045;-70
2022/06/27 04:49:08;;;;;;;24.50;14.80;;;;;;;;;;5073762;28;20048;-69
2022/06/27 04:51:35;;;;;;;27.70;15.98;;;17.20;99.90;;;;;;5073680;28;20040;-70
2022/06/27 04:54:01;;;;;;;27.08;15.95;;;18.70;99.90;;;;;;5056868;28;20040;-70
2022/06/27 04:56:30;;;;;;;26.95;17.67;;;16.70;99.90;;;;;;5073550;28;20451;-70
2022/06/27 04:58:55;;;;;;;27.13;16.75;;;17.20;99.90;;;;;;5073567;28;20432;-70
2022/06/27 05:01:21;;;;;;;23.38;15.43;;;17.50;99.90;;;;;;5072859;28;20032;-70
2022/06/27 05:03:47;;;;;;;24.75;15.75;;;17.00;99.90;;;;;;5073584;28;20047;-70
2022/06/27 05:06:13;;;;;;;29.08;15.93;;;16.90;99.90;;;;;;5073303;28;20507;-70
2022/06/27 05:08:39;;;;;;;23.23;14.60;;;18.90;99.90;;;;;;5073470;28;20048;-70
2022/06/27 05:11:05;;;;;;;30.33;14.85;;;;;;;;;;5056838;28;20393;-70
2022/06/27 05:13:31;;;;;;;22.63;13.75;;;16.70;99.90;;;;;;5073195;28;20040;-70
2022/06/27 05:15:58;;;;;;;23.30;13.65;;;18.30;99.90;;;;;;5073168;28;20048;-70
2022/06/27 05:18:24;;;;;;;29.10;15.80;;;;;;;;;;5072753;28;20397;-70
2022/06/27 05:20:51;;;;;;;31.23;16.83;;;;;;;;;;5072952;28;20044;-70
2022/06/27 05:23:16;;;;;;;26.50;17.20;;;18.10;99.90;;;;;;5072866;28;20047;-70
2022/06/27 05:25:42;;;;;;;32.88;17.50;;;;;;;;;;5074082;28;20028;-70
2022/06/27 05:28:08;;;;;;;34.25;18.13;;;18.40;99.90;;;;;;5072807;28;20041;-70
2022/06/27 05:30:34;;;;;;;32.05;19.15;;;;;;;;;;5073120;28;20052;-70
2022/06/27 05:33:00;;;;;;;32.80;18.75;;;;;;;;;;5072840;28;20040;-70
2022/06/27 05:35:26;;;;;;;28.85;18.40;;;18.90;99.90;;;;;;5072576;28;20052;-70
2022/06/27 05:37:54;;;;;;;31.17;18.40;;;19.00;99.90;;;;;;5072759;28;20036;-70
2022/06/27 05:40:21;;;;;;;30.63;19.48;;;17.30;99.90;;;;;;5072527;28;20048;-70
2022/06/27 05:42:48;;;;;;;26.77;18.42;;;;;;;;;;5073718;28;20040;-70
2022/06/27 05:45:15;;;;;;;26.42;17.83;;;;;;;;;;5073754;28;20111;-70
2022/06/27 05:47:42;;;;;;;24.90;16.80;;;17.50;99.90;;;;;;5072424;28;20467;-69
2022/06/27 05:50:08;;;;;;;26.25;16.35;;;18.90;99.90;;;;;;5072443;28;20048;-70
2022/06/27 05:52:35;;;;;;;31.77;17.67;;;;;;;;;;5072941;28;20476;-70
2022/06/27 05:55:02;;;;;;;32.90;17.50;;;18.40;99.90;;;;;;5039231;28;20174;-70
2022/06/27 05:57:28;;;;;;;30.33;18.40;;;19.20;99.90;;;;;;5072275;28;20048;-70
2022/06/27 05:59:55;;;;;;;30.30;18.30;;;17.60;99.90;;;;;;5072471;28;20044;-70
2022/06/27 06:02:25;;;;;;;33.33;18.27;;;19.10;99.90;;;;;;5072674;28;20100;-70
2022/06/27 06:04:52;;;;;;;34.65;18.73;;;18.60;99.90;;;;;;5072460;28;20048;-70
2022/06/27 06:07:18;;;;;;;34.22;19.67;;;;;;;;;;5073423;28;20538;-70
2022/06/27 06:09:45;;;;;;;32.95;19.17;;;;;;;;;;5073717;28;20044;-70
2022/06/27 06:12:12;;;;;;;30.85;18.23;;;18.70;99.90;;;;;;5071631;28;20449;-70
2022/06/27 06:14:38;;;;;;;30.77;19.15;;;;;;;;;;5072355;28;20052;-70
2022/06/27 06:17:05;;;;;;;31.27;20.73;;;;;;;;;;5072125;28;20102;-70
2022/06/27 06:19:34;;;;;;;31.85;20.35;;;19.60;99.90;;;;;;5072135;28;20072;-70
2022/06/27 06:22:00;;;;;;;40.08;21.38;;;;;;;;;;5072196;28;20040;-70
2022/06/27 06:24:26;;;;;;;37.00;22.10;;;;;;;;;;5055390;28;20032;-71
2022/06/27 06:26:53;;;;;;;38.38;22.00;;;;;;;;;;5072017;28;20040;-70
2022/06/27 06:29:21;;;;;;;36.38;22.17;;;19.50;99.90;;;;;;5072146;28;20493;-70
2022/06/27 06:31:48;;;;;;;38.92;22.25;;;;;;;;;;5072017;28;20497;-71
2022/06/27 06:34:15;;;;;;;34.80;21.55;;;17.80;99.90;;;;;;5071956;28;20072;-70
2022/06/27 06:36:43;;;;;;;38.88;23.50;;;18.60;99.90;;;;;;5072082;28;20109;-70
2022/06/27 06:39:09;;;;;;;36.60;23.02;;;19.60;99.90;;;;;;5071923;28;20427;-71
2022/06/27 06:41:36;;;;;;;40.13;23.23;;;;;;;;;;5073179;28;20138;-70
2022/06/27 06:44:05;;;;;;;44.83;24.48;;;18.80;99.90;;;;;;5072187;28;20389;-70
2022/06/27 06:46:32;;;;;;;39.15;22.90;;;18.30;99.90;;;;;;5071850;28;20045;-70
2022/06/27 06:49:02;;;;;;;36.90;23.25;;;;;;;;;;5072452;28;20035;-70
2022/06/27 06:51:36;;;;;;;38.45;22.33;;;18.90;99.90;;;;;;5055952;28;20084;-70
2022/06/27 06:54:07;;;;;;;38.78;23.15;;;19.70;99.90;;;;;;5071916;28;20492;-70
2022/06/27 06:56:34;;;;;;;40.55;24.02;;;18.80;99.90;;;;;;5071793;28;20138;-70
2022/06/27 06:59:01;;;;;;;40.20;25.17;;;19.00;99.90;;;;;;5071748;28;20452;-70
2022/06/27 07:01:27;;;;;;;47.55;26.08;;;19.00;99.90;;;;;;5038697;28;20404;-70
2022/06/27 07:03:55;;;;;;;42.85;25.13;;;18.50;99.90;;;;;;5055113;28;20045;-70
2022/06/27 07:06:26;;;;;;;36.70;24.08;;;;;;;;;;5054938;28;20037;-70
2022/06/27 07:08:54;;;;;;;40.17;24.58;;;18.70;99.90;;;;;;5071811;28;20091;-70
2022/06/27 07:11:21;;;;;;;35.65;24.00;;;19.00;99.90;;;;;;5071561;28;20048;-70
2022/06/27 07:13:51;;;;;;;43.58;23.95;;;18.60;99.90;;;;;;5071984;28;20438;-70
2022/06/27 07:16:18;;;;;;;38.70;24.20;;;18.60;99.90;;;;;;5071567;28;20052;-70
2022/06/27 07:18:47;;;;;;;45.00;24.40;;;18.80;99.90;;;;;;5071593;28;20047;-70
2022/06/27 07:21:18;;;;;;;37.45;22.70;;;19.40;99.90;;;;;;5071625;28;20033;-70
2022/06/27 07:23:46;;;;;;;39.10;24.02;;;18.10;99.90;;;;;;5072890;28;20045;-70
2022/06/27 07:26:12;;;;;;;38.25;23.60;;;19.00;99.90;;;;;;5075222;28;20044;-70
2022/06/27 07:28:39;;;;;;;40.78;25.17;;;18.20;99.90;;;;;;5058754;28;20053;-70
2022/06/27 07:31:08;;;;;;;34.58;22.98;;;;;;;;;;5075307;28;20040;-70
2022/06/27 07:33:36;;;;;;;41.83;24.52;;;17.90;99.90;;;;;;5075360;28;20052;-70
2022/06/27 07:36:04;;;;;;;36.50;23.50;;;19.10;99.90;;;;;;5075175;28;20143;-70
2022/06/27 07:38:32;;;;;;;37.05;22.85;;;19.80;99.90;;;;;;5074956;28;20120;-70
2022/06/27 07:40:58;;;;;;;38.40;23.10;;;19.70;99.90;;;;;;5074891;28;20066;-70
2022/06/27 07:43:25;;;;;;;35.60;22.38;;;19.70;99.90;;;;;;5075086;28;20037;-70
2022/06/27 07:45:51;;;;;;;33.42;21.42;;;18.90;99.90;;;;;;5076122;28;20445;-70
2022/06/27 07:48:20;;;;;;;32.80;22.15;;;18.90;99.90;;;;;;5074787;28;20399;-70
2022/06/27 07:50:46;;;;;;;30.67;20.55;;;17.90;99.90;;;;;;5074798;28;20044;-70
2022/06/27 07:53:18;;;;;;;33.97;22.80;;;19.20;99.90;;;;;;5075068;28;20396;-70
2022/06/27 07:55:46;;;;;;;40.03;22.75;;;19.80;99.90;;;;;;5075016;28;20040;-70
2022/06/27 07:58:19;;;;;;;36.83;23.33;;;18.50;99.90;;;;;;5074660;28;20059;-70
2022/06/27 08:00:49;;;;;;;40.45;23.33;;;18.50;99.90;;;;;;5074610;28;20051;-70
2022/06/27 08:03:36;;;;;;;36.95;22.92;;;19.10;99.90;;;;;;5074520;28;20044;-70
2022/06/27 08:06:05;;;;;;;34.65;22.23;;;18.10;99.90;;;;;;5074730;28;20392;-70
2022/06/27 08:08:33;;;;;;;40.70;23.45;;;;;;;;;;5074414;28;20044;-70
2022/06/27 08:10:59;;;;;;;47.17;27.00;;;19.10;99.90;;;;;;5074394;28;20050;-70
2022/06/27 08:13:26;;;;;;;44.72;26.35;;;;;;;;;;5074339;28;20036;-70
2022/06/27 08:15:53;;;;;;;44.40;26.25;;;19.10;99.90;;;;;;5074276;28;20044;-70
2022/06/27 08:18:19;;;;;;;46.20;25.90;;;19.00;99.90;;;;;;5074178;28;20094;-70
2022/06/27 08:20:48;;;;;;;40.38;25.52;;;;;;;;;;5074546;28;20394;-70
2022/06/27 08:23:15;;;;;;;39.15;23.85;;;19.10;99.90;;;;;;5074443;28;20036;-70
2022/06/27 08:25:42;;;;;;;38.25;25.35;;;19.40;99.90;;;;;;5074045;28;20036;-70
2022/06/27 08:28:09;;;;;;;38.67;26.02;;;19.50;99.90;;;;;;5075415;28;20441;-70
2022/06/27 08:30:36;;;;;;;42.47;24.63;;;19.40;99.90;;;;;;5074091;28;20119;-70
2022/06/27 08:33:02;;;;;;;35.90;24.48;;;20.00;99.90;;;;;;5074066;28;20048;-70
2022/06/27 08:35:29;;;;;;;37.13;23.52;;;19.60;99.90;;;;;;5073061;28;20123;-70
2022/06/27 08:37:56;;;;;;;37.75;24.40;;;20.40;99.90;;;;;;5073894;28;20060;-70
2022/06/27 08:40:22;;;;;;;33.20;22.58;;;20.40;99.90;;;;;;5073868;28;20048;-70
2022/06/27 08:42:48;;;;;;;33.63;22.85;;;;;;;;;;5073885;28;20036;-70
2022/06/27 08:45:16;;;;;;;33.50;21.40;;;19.00;99.90;;;;;;5073777;28;20037;-70
2022/06/27 08:47:43;;;;;;;36.20;22.83;;;20.60;99.90;;;;;;5075207;28;20101;-70
2022/06/27 08:50:10;;;;;;;34.55;21.88;;;;;;;;;;5075024;28;20388;-70
2022/06/27 08:52:40;;;;;;;35.92;22.08;;;;;;;;;;5074957;28;20040;-70
2022/06/27 08:55:08;;;;;;;30.38;20.20;;;20.10;99.90;;;;;;5074677;28;20058;-70
2022/06/27 08:57:41;;;;;;;36.38;21.58;;;20.60;99.90;;;;;;5073353;28;20140;-70
2022/06/27 09:00:12;;;;;;;28.67;19.42;;;20.80;99.90;;;;;;5074922;28;20123;-70
2022/06/27 09:02:43;;;;;;;29.30;18.65;;;20.90;99.90;;;;;;5073717;28;20080;-70
2022/06/27 09:05:27;;;;;;;31.67;18.10;;;20.40;99.90;;;;;;5073508;28;20040;-70
2022/06/27 09:07:59;;;;;;;28.15;17.60;;;20.50;99.90;;;;;;5073605;28;20063;-70
2022/06/27 09:10:26;;;;;;;31.83;19.80;;;19.80;99.90;;;;;;5056735;28;20075;-70
2022/06/27 09:12:57;;;;;;;34.25;18.55;;;20.60;99.20;;;;;;5073278;28;20119;-70
2022/06/27 09:15:57;;;;;;;29.47;16.90;;;20.70;99.90;;;;;;5056767;28;20047;-70
2022/06/27 09:18:32;;;;;;;24.90;15.13;;;21.00;99.90;;;;;;5072854;28;20047;-70
2022/06/27 09:21:01;;;;;;;26.30;16.33;;;21.00;99.60;;;;;;5073038;28;20049;-70
2022/06/27 09:23:49;;;;;;;31.35;16.30;;;21.20;99.90;;;;;;5073330;28;20506;-70
2022/06/27 09:26:16;;;;;;;32.40;16.90;;;20.40;99.90;;;;;;5072990;28;20068;-70
2022/06/27 09:28:53;;;;;;;30.17;18.60;;;20.90;99.90;;;;;;5073144;28;20106;-70
2022/06/27 09:31:25;;;;;;;22.35;15.60;;;20.20;99.90;;;;;;5073072;28;20044;-70
2022/06/27 09:34:14;;;;;;;23.50;14.32;;;20.40;99.90;;;;;;5072887;28;20128;-70
2022/06/27 09:37:01;;;;;;;22.58;15.40;;;20.50;99.90;;;;;;5072669;28;20476;-70
2022/06/27 09:39:37;;;;;;;24.58;15.02;;;21.80;99.90;;;;;;5072560;28;20052;-70
2022/06/27 09:42:09;;;;;;;26.42;15.70;;;21.10;99.90;;;;;;5072584;28;20076;-70
2022/06/27 09:44:40;;;;;;;24.83;15.13;;;22.20;99.90;;;;;;5072880;28;20385;-70
2022/06/27 09:47:13;;;;;;;31.02;17.63;;;21.40;98.10;;;;;;5073806;28;20032;-70
2022/06/27 09:49:41;;;;;;;25.85;16.50;;;22.10;99.90;;;;;;5072499;28;20040;-70
2022/06/27 09:52:18;;;;;;;25.27;14.20;;;22.00;99.90;;;;;;5072564;28;20048;-70
2022/06/27 09:54:46;;;;;;;22.88;13.88;;;22.10;99.90;;;;;;5072515;28;20052;-70
2022/06/27 09:57:13;;;;;;;22.25;13.93;;;22.00;99.90;;;;;;5055825;28;20443;-70
2022/06/27 09:59:40;;;;;;;24.17;13.38;;;20.60;99.90;;;;;;5072261;28;20040;-70
2022/06/27 10:02:07;;;;;;;24.60;13.85;;;21.40;99.90;;;;;;5072459;28;20520;-70
2022/06/27 10:04:35;;;;;;;20.70;12.30;;;22.00;99.90;;;;;;5072672;28;20052;-70
2022/06/27 10:07:02;;;;;;;17.90;11.10;;;21.90;99.90;;;;;;5072551;28;20037;-70
2022/06/27 10:09:30;;;;;;;23.20;11.43;;;21.60;99.90;;;;;;5072622;28;20124;-71
2022/06/27 10:12:28;;;;;;;23.70;11.48;;;21.20;99.90;;;;;;5072314;28;20044;-70
2022/06/27 10:15:09;;;;;;;18.75;11.10;;;21.50;99.90;;;;;;5072500;28;20070;-70
2022/06/27 10:17:41;;;;;;;19.30;10.88;;;21.40;99.90;;;;;;5072164;28;20381;-70
2022/06/27 10:20:12;;;;;;;16.63;10.60;;;21.60;97.00;;;;;;5055481;28;20072;-70
2022/06/27 10:22:41;;;;;;;21.88;10.63;;;22.10;99.90;;;;;;5073370;28;20121;-70
2022/06/27 10:25:26;;;;;;;18.45;9.30;;;21.50;97.50;;;;;;5073398;28;20401;-70
2022/06/27 10:28:13;;;;;;;17.45;8.55;;;22.00;99.90;;;;;;5072305;28;20037;-70
2022/06/27 10:30:51;;;;;;;16.35;9.07;;;20.80;99.90;;;;;;5072009;28;20036;-70
2022/06/27 10:33:23;;;;;;;22.30;10.85;;;21.30;99.90;;;;;;5072013;28;20393;-70
2022/06/27 10:35:59;;;;;;;;;;;21.70;97.20;;;;;;5056079;28;20045;-70
2022/06/27 10:38:29;;;;;;;16.48;9.40;;;21.90;99.90;;;;;;5071770;28;19920;-70
2022/06/27 10:40:56;;;;;;;16.30;8.35;;;20.90;99.80;;;;;;5072002;28;20040;-70
2022/06/27 10:43:45;;;;;;;18.15;9.75;;;22.40;99.90;;;;;;5071810;28;20040;-70
2022/06/27 10:46:10;;;;;;;22.55;11.80;;;21.80;95.70;;;;;;5072175;28;20045;-70
2022/06/27 10:48:46;;;;;;;20.80;11.32;;;21.60;95.70;;;;;;5071838;28;20056;-70
2022/06/27 10:51:27;;;;;;;16.40;10.63;;;22.00;96.10;;;;;;5055180;28;20044;-70
2022/06/27 10:54:05;;;;;;;20.58;10.95;;;22.50;99.60;;;;;;5071836;28;20055;-70
2022/06/27 10:56:51;;;;;;;19.83;11.40;;;22.40;99.60;;;;;;5071662;28;20072;-70
2022/06/27 10:59:17;;;;;;;21.45;12.60;;;22.10;99.90;;;;;;5057324;28;20378;-70
2022/06/27 11:01:57;;;;;;;21.33;11.82;;;21.90;95.90;;;;;;5059334;28;20090;-70
2022/06/27 11:04:32;;;;;;;17.25;10.07;;;21.50;99.40;;;;;;5075665;28;20492;-70
2022/06/27 11:07:03;;;;;;;16.65;10.73;;;21.60;99.40;;;;;;5075637;28;20139;-70
2022/06/27 11:09:36;;;;;;;20.07;10.27;;;21.60;95.00;;;;;;5075899;28;20372;-70
2022/06/27 11:12:03;;;;;;;16.83;9.63;;;21.50;96.10;;;;;;5075707;28;20084;-70
2022/06/27 11:14:29;;;;;;;19.25;9.60;;;22.20;99.80;;;;;;5058704;28;20135;-70
2022/06/27 11:16:55;;;;;;;13.60;8.23;;;20.70;99.00;;;;;;5075688;28;20115;-70
2022/06/27 11:22:23;;;;;;;16.27;8.82;;;21.70;95.10;;;;;;5075408;28;20392;-70
2022/06/27 11:24:49;;;;;;;19.00;10.60;;;22.20;99.30;;;;;;5075615;28;20044;-70
2022/06/27 11:27:15;;;;;;;24.10;10.52;;;22.20;99.30;;;;;;5075558;28;20506;-70
2022/06/27 11:32:32;;;;;;;22.67;10.32;;;21.00;99.20;;;;;;5075437;28;20040;-70
2022/06/27 11:34:58;;;;;;;22.75;8.98;;;21.90;98.80;;;;;;5075167;28;20458;-70
2022/06/27 11:37:28;;;;;;;16.73;9.10;;;20.50;98.50;;;;;;5075110;28;20044;-70
2022/06/27 11:40:05;;;;;;;22.98;11.77;;;22.50;98.50;;;;;;5076204;28;20064;-70
2022/06/27 11:42:33;;;;;;;21.27;10.90;;;21.40;98.50;;;;;;5074857;28;20044;-70
2022/06/27 11:45:06;;;;;;;20.70;10.25;;;21.70;98.70;;;;;;5075000;28;20033;-70
2022/06/27 11:47:37;;;;;;;23.23;10.95;;;23.00;99.50;;;;;;5058867;28;20046;-70
2022/06/27 11:50:11;;;;;;;20.42;11.80;;;22.20;95.40;;;;;;5074771;28;20451;-70
2022/06/27 11:52:39;;;;;;;19.70;10.32;;;21.20;98.20;;;;;;5058195;28;20055;-70
2022/06/27 11:55:18;;;;;;;20.75;10.75;;;21.30;98.30;;;;;;5074917;28;20374;-70
2022/06/27 11:57:49;;;;;;;21.52;11.98;;;21.90;94.10;;;;;;5074528;28;20056;-71
2022/06/27 12:00:18;;;;;;;24.17;11.02;;;22.20;93.60;;;;;;5075014;28;20040;-70
2022/06/27 12:02:44;;;;;;;21.02;11.63;;;21.90;97.90;;;;;;5074651;28;20106;-71
2022/06/27 12:05:20;;;;;;;18.15;10.00;;;22.60;97.80;;;;;;5058143;28;20041;-70
2022/06/27 12:07:55;;;;;;;24.58;9.27;;;21.60;97.50;;;;;;5073552;28;20037;-69
2022/06/27 12:10:41;;;;;;;16.25;8.55;;;22.40;97.80;;;;;;5063775;28;20044;-70
2022/06/27 12:13:12;;;;;;;27.35;11.15;;;22.70;97.80;;;;;;5054686;28;20433;-76
2022/06/27 12:15:40;;;;;;;18.48;9.93;;;22.20;97.70;;;;;;5061014;28;20048;-79
2022/06/27 12:18:09;;;;;;;21.67;9.88;;;22.50;97.80;;;;;;5057830;28;20037;-79
2022/06/27 12:20:35;;;;;;;19.65;9.27;;;22.70;97.40;;;;;;5048629;28;20083;-79
2022/06/27 12:23:02;;;;;;;21.45;9.45;;;22.10;92.80;;;;;;5055606;28;20132;-79
2022/06/27 12:25:28;;;;;;;21.42;10.93;;;22.40;96.20;;;;;;5054706;28;20405;-79
2022/06/27 12:27:54;;;;;;;17.88;9.60;;;22.80;96.70;;;;;;5054341;28;20063;-79
2022/06/27 12:30:20;;;;;;;24.90;10.35;;;;;;;;;;5073936;28;20485;-79
2022/06/27 12:32:45;;;;;;;21.40;9.88;;;23.30;93.90;;;;;;5072882;28;20045;-79
2022/06/27 12:35:12;;;;;;;22.85;10.40;;;22.70;91.70;;;;;;5074069;28;20051;-80
2022/06/27 12:37:38;;;;;;;16.23;9.70;;;22.20;96.30;;;;;;5054920;28;20578;-79
2022/06/27 12:40:06;;;;;;;24.67;11.55;;;23.10;96.60;;;;;;5040443;28;20051;-79
2022/06/27 12:42:31;;;;;;;26.48;12.23;;;22.80;96.20;;;;;;5049051;28;20075;-79
2022/06/27 12:44:58;;;;;;;28.45;10.90;;;;;;;;;;5047310;28;20072;-78
2022/06/27 12:47:23;;;;;;;22.15;12.20;;;22.10;96.40;;;;;;5061395;28;20033;-78
2022/06/27 12:49:50;;;;;;;26.50;13.07;;;22.40;96.70;;;;;;5063189;28;20041;-78
2022/06/27 12:52:16;;;;;;;24.52;12.43;;;22.90;96.60;;;;;;5056613;28;20127;-78
2022/06/27 12:54:43;;;;;;;25.17;12.93;;;23.00;94.00;;;;;;5064345;28;20045;-79
2022/06/27 12:57:13;;;;;;;25.95;12.65;;;21.40;96.50;;;;;;5061650;28;20166;-79
2022/06/27 12:59:39;;;;;;;28.35;13.15;;;;;;;;;;5063863;28;20448;-78
2022/06/27 13:02:06;;;;;;;30.00;14.45;;;22.70;97.00;;;;;;5041423;28;20485;-79